createdAt,value
2019-03-26T00:01:19.901Z,102629.13
2019-03-26T00:03:49.591Z,102634.67
2019-03-26T00:06:19.271Z,102642.43
2019-03-26T00:08:48.997Z,102640.12
2019-03-26T00:11:18.684Z,102639.31
2019-03-26T00:13:48.426Z,102640.55
2019-03-26T00:16:18.363Z,102639.61
2019-03-26T00:18:48.049Z,102641.34
2019-03-26T00:21:17.741Z,102645.12
2019-03-26T00:23:47.708Z,102648.92
2019-03-26T00:26:17.533Z,102644.95
2019-03-26T00:28:47.254Z,102649.21
2019-03-26T00:31:16.946Z,102639.16
2019-03-26T00:33:46.724Z,102637.47
2019-03-26T00:36:16.433Z,102634.39
2019-03-26T00:38:46.258Z,102631.84
2019-03-26T00:41:15.923Z,102621.95
2019-03-26T00:43:45.609Z,102631.35
2019-03-26T00:46:15.316Z,102628.22
2019-03-26T00:48:44.987Z,102629.99
2019-03-26T00:51:14.661Z,102625.58
2019-03-26T00:53:44.388Z,102628.23
2019-03-26T00:56:14.053Z,102632.52
2019-03-26T00:58:43.751Z,102639.34
2019-03-26T01:01:13.747Z,102641.94
2019-03-26T01:03:43.421Z,102639.78
2019-03-26T01:06:13.101Z,102648.80
2019-03-26T01:08:42.812Z,102645.84
2019-03-26T01:11:12.478Z,102645.88
2019-03-26T01:13:42.189Z,102648.03
2019-03-26T01:16:11.896Z,102650.14
2019-03-26T01:18:41.582Z,102647.03
2019-03-26T01:21:11.368Z,102645.39
2019-03-26T01:23:41.208Z,102653.64
2019-03-26T01:26:10.938Z,102649.19
2019-03-26T01:28:40.630Z,102651.48
2019-03-26T01:31:10.309Z,102649.63
2019-03-26T01:33:40.059Z,102645.76
2019-03-26T01:36:09.858Z,102653.13
2019-03-26T01:38:39.731Z,102661.20
2019-03-26T01:41:09.490Z,102665.47
2019-03-26T01:43:39.372Z,102661.64
2019-03-26T01:46:09.114Z,102662.66
2019-03-26T01:48:38.937Z,102660.81
2019-03-26T01:51:08.610Z,102665.06
2019-03-26T01:53:38.299Z,102659.97
2019-03-26T01:56:08.048Z,102662.15
2019-03-26T01:58:37.722Z,102659.11
2019-03-26T02:01:07.413Z,102654.78
2019-03-26T02:03:37.147Z,102653.05
2019-03-26T02:06:06.884Z,102656.05
2019-03-26T02:08:36.559Z,102655.55
2019-03-26T02:11:06.333Z,102659.89
2019-03-26T02:13:35.998Z,102653.83
2019-03-26T02:16:05.834Z,102649.09
2019-03-26T02:18:35.538Z,102653.00
2019-03-26T02:21:05.697Z,102651.93
2019-03-26T02:23:35.392Z,102659.41
2019-03-26T02:26:05.070Z,102658.06
2019-03-26T02:28:34.785Z,102656.78
2019-03-26T02:31:04.443Z,102653.23
2019-03-26T02:33:34.111Z,102667.51
2019-03-26T02:36:03.838Z,102666.17
2019-03-26T02:38:33.555Z,102665.91
2019-03-26T02:41:03.250Z,102669.39
2019-03-26T02:43:32.941Z,102669.91
2019-03-26T02:46:02.893Z,102663.25
2019-03-26T02:48:32.616Z,102662.50
2019-03-26T02:51:02.444Z,102654.72
2019-03-26T02:53:32.177Z,102657.81
2019-03-26T02:56:02.449Z,102654.34
2019-03-26T02:58:32.166Z,102658.55
2019-03-26T03:01:01.851Z,102650.30
2019-03-26T03:03:31.571Z,102643.84
2019-03-26T03:06:01.243Z,102646.30
2019-03-26T03:08:31.283Z,102648.29
2019-03-26T03:11:00.943Z,102649.17
2019-03-26T03:13:30.630Z,102656.95
2019-03-26T03:16:00.353Z,102647.41
2019-03-26T03:18:30.095Z,102646.64
2019-03-26T03:20:59.843Z,102647.44
2019-03-26T03:23:29.550Z,102650.91
2019-03-26T03:25:59.220Z,102655.20
2019-03-26T03:28:28.944Z,102642.06
2019-03-26T03:30:58.710Z,102635.05
2019-03-26T03:33:28.953Z,102633.42
2019-03-26T03:35:59.014Z,102639.09
2019-03-26T03:38:28.695Z,102637.80
2019-03-26T03:40:58.398Z,102638.67
2019-03-26T03:43:28.103Z,102638.11
2019-03-26T03:45:57.770Z,102645.72
2019-03-26T03:48:27.582Z,102653.52
2019-03-26T03:50:57.928Z,102653.69
2019-03-26T03:53:27.685Z,102650.93
2019-03-26T03:55:58.194Z,102653.48
2019-03-26T03:58:28.597Z,102648.45
2019-03-26T04:00:58.391Z,102647.45
2019-03-26T04:03:28.075Z,102650.95
2019-03-26T04:06:08.851Z,102636.77
2019-03-26T04:08:29.236Z,102636.45
2019-03-26T04:10:58.972Z,102635.56
2019-03-26T04:13:28.715Z,102637.80
2019-03-26T04:15:58.429Z,102647.30
2019-03-26T04:18:28.141Z,102638.07
2019-03-26T04:20:58.175Z,102642.28
2019-03-26T04:23:27.907Z,102638.52
2019-03-26T04:25:57.596Z,102642.80
2019-03-26T04:28:27.326Z,102647.20
2019-03-26T04:30:56.996Z,102642.36
2019-03-26T04:33:26.696Z,102637.28
2019-03-26T04:35:56.546Z,102643.01
2019-03-26T04:38:26.285Z,102637.47
2019-03-26T04:40:56.611Z,102630.55
2019-03-26T04:43:26.426Z,102627.48
2019-03-26T04:45:56.130Z,102631.29
2019-03-26T04:48:25.821Z,102637.03
2019-03-26T04:50:55.562Z,102633.53
2019-03-26T04:53:25.265Z,102636.72
2019-03-26T04:55:55.004Z,102639.25
2019-03-26T04:58:24.706Z,102632.88
2019-03-26T05:00:54.598Z,102643.47
2019-03-26T05:03:24.352Z,102640.41
2019-03-26T05:05:54.060Z,102639.97
2019-03-26T05:08:23.805Z,102636.50
2019-03-26T05:10:53.486Z,102632.09
2019-03-26T05:13:23.212Z,102634.70
2019-03-26T05:15:52.927Z,102634.24
2019-03-26T05:18:22.609Z,102630.61
2019-03-26T05:20:52.312Z,102627.42
2019-03-26T05:23:22.052Z,102635.14
2019-03-26T05:25:55.115Z,102629.61
2019-03-26T05:28:24.808Z,102629.99
2019-03-26T05:30:54.554Z,102628.34
2019-03-26T05:33:24.323Z,102625.66
2019-03-26T05:35:54.102Z,102628.76
2019-03-26T05:38:23.811Z,102628.25
2019-03-26T05:40:53.614Z,102634.33
2019-03-26T05:43:23.455Z,102628.32
2019-03-26T05:45:53.126Z,102638.81
2019-03-26T05:48:22.967Z,102630.88
2019-03-26T05:50:52.648Z,102629.93
2019-03-26T05:53:22.346Z,102634.74
2019-03-26T05:55:52.230Z,102633.89
2019-03-26T05:58:21.946Z,102635.73
2019-03-26T06:00:51.677Z,102647.34
2019-03-26T06:03:21.392Z,102643.78
2019-03-26T06:05:51.692Z,102639.94
2019-03-26T06:08:21.392Z,102637.25
2019-03-26T06:10:51.064Z,102641.42
2019-03-26T06:13:20.791Z,102639.60
2019-03-26T06:15:50.484Z,102639.53
2019-03-26T06:18:20.211Z,102648.85
2019-03-26T06:20:49.920Z,102645.75
2019-03-26T06:23:19.819Z,102662.19
2019-03-26T06:25:49.542Z,102659.16
2019-03-26T06:28:19.258Z,102656.59
2019-03-26T06:30:49.049Z,102662.62
2019-03-26T06:33:18.871Z,102653.08
2019-03-26T06:35:48.546Z,102653.48
2019-03-26T06:38:18.283Z,102652.05
2019-03-26T06:40:48.064Z,102658.59
2019-03-26T06:43:17.755Z,102659.09
2019-03-26T06:45:47.463Z,102653.30
2019-03-26T06:48:17.244Z,102650.73
2019-03-26T06:50:46.981Z,102652.93
2019-03-26T06:53:16.662Z,102659.50
2019-03-26T06:55:46.338Z,102658.69
2019-03-26T06:58:16.059Z,102656.58
2019-03-26T07:00:45.735Z,102655.08
2019-03-26T07:03:15.473Z,102655.52
2019-03-26T07:05:45.161Z,102650.91
2019-03-26T07:08:15.111Z,102660.30
2019-03-26T07:10:44.899Z,102660.71
2019-03-26T07:13:14.592Z,102656.31
2019-03-26T07:15:44.612Z,102660.84
2019-03-26T07:18:14.357Z,102660.57
2019-03-26T07:20:44.032Z,102665.19
2019-03-26T07:23:13.766Z,102668.57
2019-03-26T07:25:43.428Z,102671.86
2019-03-26T07:28:13.209Z,102666.38
2019-03-26T07:30:45.852Z,102669.58
2019-03-26T07:33:15.650Z,102669.25
2019-03-26T07:35:45.402Z,102664.83
2019-03-26T07:38:15.109Z,102657.50
2019-03-26T07:40:44.910Z,102663.25
2019-03-26T07:43:14.686Z,102664.96
2019-03-26T07:45:44.393Z,102655.38
2019-03-26T07:48:14.147Z,102646.75
2019-03-26T07:50:43.902Z,102651.00
2019-03-26T07:53:13.581Z,102655.66
2019-03-26T07:55:44.555Z,102663.48
2019-03-26T07:58:14.440Z,102663.38
2019-03-26T08:00:44.139Z,102660.20
2019-03-26T08:03:14.003Z,102661.18
2019-03-26T08:05:44.072Z,102659.71
2019-03-26T08:08:13.757Z,102663.55
2019-03-26T08:10:43.452Z,102667.49
2019-03-26T08:13:13.261Z,102674.83
2019-03-26T08:15:42.986Z,102671.43
2019-03-26T08:18:12.704Z,102677.98
2019-03-26T08:20:42.512Z,102666.74
2019-03-26T08:23:12.197Z,102673.47
2019-03-26T08:25:42.155Z,102673.03
2019-03-26T08:28:11.832Z,102671.82
2019-03-26T08:30:41.625Z,102675.05
2019-03-26T08:33:11.344Z,102668.48
2019-03-26T08:35:41.062Z,102678.22
2019-03-26T08:38:12.873Z,102668.31
2019-03-26T08:40:42.164Z,102677.16
2019-03-26T08:43:11.897Z,102673.91
2019-03-26T08:45:41.621Z,102679.35
2019-03-26T08:48:11.397Z,102680.98
2019-03-26T08:50:41.153Z,102680.42
2019-03-26T08:53:11.049Z,102683.44
2019-03-26T08:55:40.756Z,102694.49
2019-03-26T08:58:10.509Z,102693.43
2019-03-26T09:00:40.330Z,102698.06
2019-03-26T09:03:10.045Z,102697.59
2019-03-26T09:05:39.960Z,102699.51
2019-03-26T09:08:09.707Z,102698.00
2019-03-26T09:10:51.196Z,102693.92
2019-03-26T09:13:11.056Z,102687.55
2019-03-26T09:15:40.789Z,102695.08
2019-03-26T09:18:10.476Z,102686.69
2019-03-26T09:20:40.398Z,102690.07
2019-03-26T09:23:12.299Z,102687.00
2019-03-26T09:25:41.490Z,102691.19
2019-03-26T09:28:11.248Z,102681.63
2019-03-26T09:30:40.954Z,102683.06
2019-03-26T09:33:10.725Z,102685.93
2019-03-26T09:35:40.430Z,102693.44
2019-03-26T09:38:10.125Z,102693.59
2019-03-26T09:40:39.898Z,102691.40
2019-03-26T09:43:09.660Z,102683.81
2019-03-26T09:45:39.371Z,102680.11
2019-03-26T09:48:09.124Z,102684.06
2019-03-26T09:50:38.907Z,102679.21
2019-03-26T09:53:08.593Z,102693.27
2019-03-26T09:55:38.719Z,102684.30
2019-03-26T09:58:08.507Z,102684.50
2019-03-26T10:00:38.249Z,102690.00
2019-03-26T10:03:08.347Z,102691.59
2019-03-26T10:05:38.069Z,102695.77
2019-03-26T10:08:07.813Z,102692.48
2019-03-26T10:10:37.688Z,102696.00
2019-03-26T10:13:07.520Z,102705.74
2019-03-26T10:15:37.206Z,102711.43
2019-03-26T10:18:07.328Z,102708.64
2019-03-26T10:20:37.127Z,102703.69
2019-03-26T10:23:07.074Z,102706.30
2019-03-26T10:25:36.800Z,102702.86
2019-03-26T10:28:06.529Z,102701.66
2019-03-26T10:30:38.218Z,102694.60
2019-03-26T10:33:08.946Z,102690.97
2019-03-26T10:35:38.679Z,102695.19
2019-03-26T10:38:08.367Z,102688.81
2019-03-26T10:40:38.316Z,102684.67
2019-03-26T10:43:08.065Z,102694.23
2019-03-26T10:45:37.778Z,102689.67
2019-03-26T10:48:07.610Z,102689.19
2019-03-26T10:50:37.488Z,102689.91
2019-03-26T10:53:07.250Z,102688.94
2019-03-26T10:55:37.203Z,102691.14
2019-03-26T10:58:06.973Z,102682.30
2019-03-26T11:00:36.778Z,102678.40
2019-03-26T11:03:06.552Z,102682.03
2019-03-26T11:05:36.320Z,102676.25
2019-03-26T11:08:06.100Z,102671.56
2019-03-26T11:10:36.089Z,102675.92
2019-03-26T11:13:05.784Z,102666.58
2019-03-26T11:15:35.501Z,102661.17
2019-03-26T11:18:05.208Z,102660.64
2019-03-26T11:20:34.944Z,102656.11
2019-03-26T11:23:04.660Z,102658.02
2019-03-26T11:25:34.518Z,102655.26
2019-03-26T11:28:04.258Z,102661.45
2019-03-26T11:30:33.931Z,102659.82
2019-03-26T11:33:03.681Z,102657.00
2019-03-26T11:35:33.353Z,102658.31
2019-03-26T11:38:03.071Z,102652.84
2019-03-26T11:40:32.827Z,102652.42
2019-03-26T11:43:02.538Z,102654.10
2019-03-26T11:45:32.242Z,102652.80
2019-03-26T11:48:02.721Z,102653.84
2019-03-26T11:50:32.503Z,102649.26
2019-03-26T11:53:02.266Z,102645.12
2019-03-26T11:55:31.939Z,102640.37
2019-03-26T11:58:02.144Z,102636.05
2019-03-26T12:00:34.823Z,102638.47
2019-03-26T12:03:04.497Z,102627.19
2019-03-26T12:05:34.208Z,102635.67
2019-03-26T12:08:03.871Z,102632.41
2019-03-26T12:10:33.681Z,102638.55
2019-03-26T12:13:03.627Z,102634.14
2019-03-26T12:15:33.395Z,102628.84
2019-03-26T12:18:03.102Z,102634.83
2019-03-26T12:20:32.824Z,102634.30
2019-03-26T12:23:03.058Z,102630.02
2019-03-26T12:25:32.788Z,102634.30
2019-03-26T12:28:02.469Z,102634.66
2019-03-26T12:30:41.759Z,102629.89
2019-03-26T12:33:11.643Z,102639.39
2019-03-26T12:35:41.391Z,102643.03
2019-03-26T12:38:18.753Z,102633.20
2019-03-26T12:40:48.801Z,102630.47
2019-03-26T12:43:18.789Z,102637.84
2019-03-26T12:45:48.544Z,102633.89
2019-03-26T12:48:18.373Z,102628.56
2019-03-26T12:50:48.148Z,102641.35
2019-03-26T12:53:17.911Z,102642.70
2019-03-26T12:55:47.751Z,102635.37
2019-03-26T12:58:30.652Z,102638.42
2019-03-26T13:00:49.093Z,102634.38
2019-03-26T13:03:18.829Z,102636.05
2019-03-26T13:05:48.776Z,102643.56
2019-03-26T13:08:18.505Z,102638.34
2019-03-26T13:10:53.913Z,102646.53
2019-03-26T13:13:19.649Z,102639.44
2019-03-26T13:15:49.504Z,102632.10
2019-03-26T13:18:19.204Z,102638.38
2019-03-26T13:20:48.952Z,102633.94
2019-03-26T13:23:18.642Z,102641.88
2019-03-26T13:25:48.377Z,102646.16
2019-03-26T13:28:18.181Z,102640.63
2019-03-26T13:30:47.901Z,102631.11
2019-03-26T13:33:17.748Z,102644.86
2019-03-26T13:35:47.514Z,102629.16
2019-03-26T13:38:17.205Z,102629.87
2019-03-26T13:40:47.022Z,102636.83
2019-03-26T13:43:16.745Z,102637.13
2019-03-26T13:45:46.461Z,102635.02
2019-03-26T13:48:16.303Z,102637.61
2019-03-26T13:50:46.071Z,102640.41
2019-03-26T13:53:15.807Z,102641.36
2019-03-26T13:55:45.604Z,102631.55
2019-03-26T13:58:15.473Z,102627.81
2019-03-26T14:00:46.693Z,102637.84
2019-03-26T14:03:16.377Z,102622.59
2019-03-26T14:05:46.235Z,102623.56
2019-03-26T14:08:15.965Z,102616.95
2019-03-26T14:10:45.772Z,102625.37
2019-03-26T14:13:15.465Z,102624.80
2019-03-26T14:15:45.171Z,102634.42
2019-03-26T14:18:15.181Z,102636.34
2019-03-26T14:20:44.889Z,102642.33
2019-03-26T14:23:14.590Z,102634.47
2019-03-26T14:25:44.317Z,102638.70
2019-03-26T14:28:14.053Z,102640.33
2019-03-26T14:30:47.012Z,102627.64
2019-03-26T14:33:16.941Z,102626.13
2019-03-26T14:35:46.616Z,102626.58
2019-03-26T14:38:16.363Z,102628.70
2019-03-26T14:40:54.624Z,102631.02
2019-03-26T14:43:17.787Z,102629.30
2019-03-26T14:45:47.512Z,102628.24
2019-03-26T14:48:17.196Z,102625.83
2019-03-26T14:50:46.920Z,102624.98
2019-03-26T14:53:16.834Z,102634.38
2019-03-26T14:55:46.520Z,102628.55
2019-03-26T14:58:16.211Z,102634.66
2019-03-26T15:00:45.940Z,102642.86
2019-03-26T15:03:15.684Z,102646.94
2019-03-26T15:05:45.412Z,102640.17
2019-03-26T15:08:15.141Z,102636.75
2019-03-26T15:10:44.841Z,102636.78
2019-03-26T15:13:14.746Z,102634.47
2019-03-26T15:15:44.443Z,102635.90
2019-03-26T15:18:14.236Z,102639.32
2019-03-26T15:20:43.972Z,102640.14
2019-03-26T15:23:13.679Z,102638.02
2019-03-26T15:25:43.430Z,102638.09
2019-03-26T15:28:13.257Z,102637.18
2019-03-26T15:30:43.109Z,102631.91
2019-03-26T15:33:12.909Z,102637.95
2019-03-26T15:35:42.712Z,102634.81
2019-03-26T15:38:12.441Z,102636.64
2019-03-26T15:40:42.133Z,102637.35
2019-03-26T15:43:11.834Z,102644.90
2019-03-26T15:45:41.551Z,102639.28
2019-03-26T15:48:11.247Z,102641.68
2019-03-26T15:50:46.386Z,102639.92
2019-03-26T15:53:16.785Z,102638.61
2019-03-26T15:55:46.742Z,102642.66
2019-03-26T15:58:16.522Z,102645.51
2019-03-26T16:00:46.169Z,102641.03
2019-03-26T16:03:15.925Z,102649.83
2019-03-26T16:05:45.682Z,102655.79
2019-03-26T16:08:15.416Z,102655.98
2019-03-26T16:10:45.169Z,102661.73
2019-03-26T16:13:15.004Z,102649.10
2019-03-26T16:15:45.295Z,102648.13
2019-03-26T16:18:15.031Z,102647.30
2019-03-26T16:20:44.764Z,102637.72
2019-03-26T16:23:14.638Z,102639.52
2019-03-26T16:25:44.360Z,102641.84
2019-03-26T16:28:14.077Z,102647.22
2019-03-26T16:30:44.719Z,102647.55
2019-03-26T16:33:14.435Z,102643.56
2019-03-26T16:35:44.183Z,102636.27
2019-03-26T16:38:13.890Z,102641.68
2019-03-26T16:40:43.579Z,102634.75
2019-03-26T16:43:13.374Z,102640.67
2019-03-26T16:45:43.209Z,102637.20
2019-03-26T16:48:12.914Z,102641.44
2019-03-26T16:50:42.616Z,102637.60
2019-03-26T16:53:12.504Z,102638.83
2019-03-26T16:55:42.207Z,102634.34
2019-03-26T16:58:11.895Z,102637.84
2019-03-26T17:00:42.067Z,102643.80
2019-03-26T17:03:12.253Z,102637.23
2019-03-26T17:05:41.979Z,102635.97
2019-03-26T17:08:11.772Z,102638.91
2019-03-26T17:10:41.724Z,102641.23
2019-03-26T17:13:11.475Z,102642.23
2019-03-26T17:15:41.222Z,102651.98
2019-03-26T17:18:10.945Z,102648.52
2019-03-26T17:20:40.609Z,102640.33
2019-03-26T17:23:10.909Z,102642.94
2019-03-26T17:25:40.724Z,102642.55
2019-03-26T17:28:10.454Z,102640.68
2019-03-26T17:30:40.125Z,102637.09
2019-03-26T17:33:09.976Z,102624.83
2019-03-26T17:35:39.765Z,102630.45
2019-03-26T17:38:09.575Z,102631.02
2019-03-26T17:40:39.411Z,102639.84
2019-03-26T17:43:09.130Z,102633.14
2019-03-26T17:45:38.891Z,102638.12
2019-03-26T17:48:08.674Z,102638.77
2019-03-26T17:50:38.531Z,102641.55
2019-03-26T17:53:08.330Z,102643.34
2019-03-26T17:55:38.014Z,102645.91
2019-03-26T17:58:07.838Z,102643.34
2019-03-26T18:00:39.971Z,102641.25
2019-03-26T18:03:09.714Z,102648.33
2019-03-26T18:05:39.441Z,102648.33
2019-03-26T18:08:09.187Z,102652.78
2019-03-26T18:10:38.913Z,102656.80
2019-03-26T18:13:08.619Z,102659.06
2019-03-26T18:15:38.373Z,102661.22
2019-03-26T18:18:08.077Z,102666.67
2019-03-26T18:20:38.004Z,102663.55
2019-03-26T18:23:07.725Z,102670.75
2019-03-26T18:25:37.493Z,102671.92
2019-03-26T18:28:07.335Z,102680.86
2019-03-26T18:30:37.222Z,102686.00
2019-03-26T18:33:06.946Z,102687.82
2019-03-26T18:35:36.716Z,102693.06
2019-03-26T18:38:06.979Z,102708.80
2019-03-26T18:40:36.761Z,102712.98
2019-03-26T18:43:06.530Z,102718.19
2019-03-26T18:45:36.275Z,102720.55
2019-03-26T18:48:06.518Z,102715.66
2019-03-26T18:50:36.309Z,102720.48
2019-03-26T18:53:06.243Z,102720.52
2019-03-26T18:55:37.192Z,102724.97
2019-03-26T18:58:07.074Z,102721.56
2019-03-26T19:00:37.725Z,102722.70
2019-03-26T19:03:09.167Z,102722.91
2019-03-26T19:05:38.989Z,102727.67
2019-03-26T19:08:08.952Z,102725.54
2019-03-26T19:10:39.071Z,102722.62
2019-03-26T19:13:19.083Z,102722.80
2019-03-26T19:15:41.253Z,102729.80
2019-03-26T19:18:11.424Z,102724.14
2019-03-26T19:20:41.211Z,102724.52
2019-03-26T19:23:10.985Z,102727.60
2019-03-26T19:25:40.826Z,102727.67
2019-03-26T19:28:11.706Z,102728.14
2019-03-26T19:30:41.732Z,102739.35
2019-03-26T19:33:11.529Z,102733.83
2019-03-26T19:35:41.354Z,102735.16
2019-03-26T19:38:11.502Z,102738.63
2019-03-26T19:40:41.392Z,102742.59
2019-03-26T19:43:11.787Z,102740.15
2019-03-26T19:45:42.204Z,102736.14
2019-03-26T19:48:12.274Z,102737.39
2019-03-26T19:50:43.130Z,102738.87
2019-03-26T19:53:13.054Z,102742.48
2019-03-26T19:55:43.520Z,102737.67
2019-03-26T19:58:13.515Z,102740.90
2019-03-26T20:00:43.437Z,102747.61
2019-03-26T20:03:13.883Z,102753.73
2019-03-26T20:05:43.771Z,102757.99
2019-03-26T20:08:14.042Z,102757.13
2019-03-26T20:10:45.593Z,102757.48
2019-03-26T20:13:24.181Z,102767.55
2019-03-26T20:15:47.142Z,102770.21
2019-03-26T20:18:18.245Z,102774.47
2019-03-26T20:20:48.017Z,102776.25
2019-03-26T20:23:18.120Z,102766.75
2019-03-26T20:25:47.937Z,102759.53
2019-03-26T20:28:18.422Z,102765.72
2019-03-26T20:30:48.322Z,102763.80
2019-03-26T20:33:18.261Z,102763.31
2019-03-26T20:35:48.158Z,102764.68
2019-03-26T20:38:17.735Z,102765.66
2019-03-26T20:40:47.513Z,102764.97
2019-03-26T20:43:17.348Z,102758.85
2019-03-26T20:45:47.195Z,102764.23
2019-03-26T20:48:17.337Z,102769.56
2019-03-26T20:50:49.302Z,102775.77
2019-03-26T20:53:19.072Z,102775.50
2019-03-26T20:55:54.610Z,102777.93
2019-03-26T20:58:21.890Z,102782.06
2019-03-26T21:00:51.756Z,102789.25
2019-03-26T21:03:21.532Z,102791.41
2019-03-26T21:05:51.701Z,102791.89
2019-03-26T21:08:21.533Z,102784.55
2019-03-26T21:10:51.338Z,102783.64
2019-03-26T21:13:21.372Z,102785.44
2019-03-26T21:15:57.022Z,102791.20
2019-03-26T21:18:22.747Z,102783.78
2019-03-26T21:20:53.516Z,102784.11
2019-03-26T21:23:23.292Z,102788.09
2019-03-26T21:25:53.058Z,102782.48
2019-03-26T21:28:22.818Z,102778.63
2019-03-26T21:30:52.567Z,102785.05
2019-03-26T21:33:22.341Z,102778.19
2019-03-26T21:35:52.118Z,102775.37
2019-03-26T21:38:21.875Z,102772.84
2019-03-26T21:40:51.582Z,102775.06
2019-03-26T21:43:21.461Z,102779.23
2019-03-26T21:45:51.186Z,102776.19
2019-03-26T21:48:21.240Z,102778.94
2019-03-26T21:50:50.996Z,102775.85
2019-03-26T21:53:20.702Z,102779.44
2019-03-26T21:55:50.400Z,102783.03
2019-03-26T21:58:20.169Z,102786.09
2019-03-26T22:00:49.866Z,102789.95
2019-03-26T22:03:19.672Z,102788.02
2019-03-26T22:05:49.412Z,102786.41
2019-03-26T22:08:19.124Z,102788.59
2019-03-26T22:10:48.830Z,102788.33
2019-03-26T22:13:18.567Z,102791.41
2019-03-26T22:15:48.305Z,102798.94
2019-03-26T22:18:18.055Z,102796.27
2019-03-26T22:20:48.013Z,102797.11
2019-03-26T22:23:17.703Z,102800.46
2019-03-26T22:25:48.587Z,102797.71
2019-03-26T22:28:18.344Z,102792.12
2019-03-26T22:30:48.175Z,102790.80
2019-03-26T22:33:17.901Z,102791.80
2019-03-26T22:35:47.597Z,102795.04
2019-03-26T22:38:17.318Z,102794.11
2019-03-26T22:40:47.088Z,102797.20
2019-03-26T22:43:16.910Z,102802.55
2019-03-26T22:45:48.106Z,102799.95
2019-03-26T22:48:17.839Z,102802.23
2019-03-26T22:50:47.543Z,102801.34
2019-03-26T22:53:17.356Z,102798.40
2019-03-26T22:55:47.125Z,102793.30
2019-03-26T22:58:16.948Z,102796.88
2019-03-26T23:00:46.776Z,102803.84
2019-03-26T23:03:16.573Z,102807.90
2019-03-26T23:05:46.280Z,102816.62
2019-03-26T23:08:16.150Z,102816.70
2019-03-26T23:10:45.833Z,102814.05
2019-03-26T23:13:15.601Z,102821.84
2019-03-26T23:15:45.284Z,102815.52
2019-03-26T23:18:14.988Z,102816.39
2019-03-26T23:20:44.707Z,102819.45
2019-03-26T23:23:14.407Z,102818.24
2019-03-26T23:25:44.980Z,102814.41
2019-03-26T23:28:14.676Z,102819.13
2019-03-26T23:30:44.453Z,102817.91
2019-03-26T23:33:14.459Z,102818.45
2019-03-26T23:35:44.258Z,102821.41
2019-03-26T23:38:14.106Z,102826.41
2019-03-26T23:40:43.835Z,102832.06
2019-03-26T23:43:13.573Z,102833.67
2019-03-26T23:45:43.393Z,102831.11
2019-03-26T23:48:13.081Z,102825.61
2019-03-26T23:50:43.273Z,102827.83
2019-03-26T23:53:13.101Z,102832.08
2019-03-26T23:55:42.792Z,102828.62
2019-03-26T23:58:12.540Z,102825.59
